Time;durP1;ratioP1;P1;durP2;ratioP2;P2;SDS_P1;SDS_P2;PMS_P1;PMS_P2;Temp;Humidity;BMP_temperature;BMP_pressure;BME280_temperature;BME280_humidity;BME280_pressure;Samples;Min_cycle;Max_cycle;Signal;HPM_P1;HPM_P2
2022/04/09 00:00:09;;;;;;;;;;;;;;;21.56;38.72;100303.44;5053491;28;19966;-79
2022/04/09 00:02:35;;;;;;;;;;;;;;;21.55;38.61;100310.06;5054761;28;19921;-81
2022/04/09 00:05:00;;;;;;;;;;;;;;;21.55;38.72;100312.03;5053693;28;19925;-79
2022/04/09 00:07:25;;;;;;;;;;;;;;;21.55;38.60;100312.03;5054542;28;19921;-79
2022/04/09 00:09:50;;;;;;;;;;;;;;;21.55;38.72;100317.50;5037189;28;19940;-84
2022/04/09 00:12:16;;;;;;;;;;;;;;;21.54;38.61;100322.19;5054685;28;19974;-78
2022/04/09 00:14:41;;;;;;;;;;;;;;;21.53;38.46;100317.84;5053211;28;19963;-78
2022/04/09 00:17:08;;;;;;;;;;;;;;;21.53;38.81;100328.03;5054510;28;19916;-78
2022/04/09 00:19:34;;;;;;;;;;;;;;;21.53;38.50;100333.53;5053271;28;19920;-79
2022/04/09 00:21:59;;;;;;;;;;;;;;;21.52;38.67;100340.13;5037207;28;19920;-79
2022/04/09 00:24:25;;;;;;;;;;;;;;;21.51;38.61;100339.34;5055903;28;20319;-78
2022/04/09 00:26:50;;;;;;;;;;;;;;;21.51;38.77;100346.78;5058268;28;20019;-82
2022/04/09 00:29:15;;;;;;;;;;;;;;;21.49;38.64;100343.53;5058340;28;19927;-79
2022/04/09 00:31:40;;;;;;;;;;;;;;;21.48;38.84;100348.22;5056951;28;20031;-79
2022/04/09 00:34:05;;;;;;;;;;;;;;;21.47;38.90;100357.63;5057844;28;20373;-79
2022/04/09 00:36:31;;;;;;;;;;;;;;;21.46;38.95;100353.25;5057075;28;20287;-78
2022/04/09 00:38:56;;;;;;;;;;;;;;;21.46;38.89;100363.44;5058044;28;19968;-78
2022/04/09 00:41:21;;;;;;;;;;;;;;;21.44;38.91;100361.00;5057080;28;20440;-79
2022/04/09 00:43:46;;;;;;;;;;;;;;;21.44;38.66;100365.69;5057213;28;19921;-79
2022/04/09 00:46:13;;;;;;;;;;;;;;;21.42;38.90;100366.03;5039546;28;20046;-78
2022/04/09 00:48:39;;;;;;;;;;;;;;;21.42;39.00;100373.44;5057509;28;19956;-78
2022/04/09 00:51:04;;;;;;;;;;;;;;;21.41;38.80;100372.66;5039689;28;19916;-78
2022/04/09 00:53:33;;;;;;;;;;;;;;;21.40;38.92;100376.53;5040054;28;19925;-79
2022/04/09 00:56:20;;;;;;;;;;;;;;;21.39;38.81;100375.72;5057459;28;19924;-79
2022/04/09 00:58:55;;;;;;;;;;;;;;;21.38;38.93;100382.34;5057790;28;20014;-80
2022/04/09 01:01:22;;;;;;;;;;;;;;;21.37;38.75;100391.69;5057733;28;19928;-78
2022/04/09 01:03:49;;;;;;;;;;;;;;;21.36;38.86;100392.81;5058182;28;19917;-79
2022/04/09 01:06:14;;;;;;;;;;;;;;;21.36;38.50;100400.25;5042002;28;19913;-79
2022/04/09 01:08:40;;;;;;;;;;;;;;;21.34;38.83;100408.84;5040506;28;19923;-78
2022/04/09 01:11:05;;;;;;;;;;;;;;;21.34;38.92;100414.31;5039905;28;19920;-79
2022/04/09 01:13:30;;;;;;;;;;;;;;;21.33;38.65;100423.69;5057681;28;19925;-78
2022/04/09 01:15:56;;;;;;;;;;;;;;;21.32;38.73;100415.78;5039779;28;19957;-84
2022/04/09 01:18:21;;;;;;;;;;;;;;;21.32;38.84;100421.28;5057116;28;19972;-79
2022/04/09 01:20:46;;;;;;;;;;;;;;;21.30;38.61;100429.03;5039529;28;19965;-78
2022/04/09 01:23:12;;;;;;;;;;;;;;;21.29;38.41;100439.22;5039665;28;19917;-78
2022/04/09 01:25:40;;;;;;;;;;;;;;;21.29;38.39;100449.38;5023009;28;19928;-78
2022/04/09 01:28:05;;;;;;;;;;;;;;;21.28;38.65;100453.25;5057581;28;19921;-79
2022/04/09 01:30:31;;;;;;;;;;;;;;;21.27;38.73;100457.94;5056931;28;19921;-79
2022/04/09 01:32:56;;;;;;;;;;;;;;;21.25;38.70;100449.22;5056879;28;19924;-83
2022/04/09 01:35:21;;;;;;;;;;;;;;;21.26;38.50;100463.75;5038528;28;19922;-79
2022/04/09 01:37:47;;;;;;;;;;;;;;;21.25;38.37;100457.47;5056310;28;19928;-78
2022/04/09 01:40:12;;;;;;;;;;;;;;;21.24;38.66;100466.81;5039302;28;19943;-79
2022/04/09 01:42:37;;;;;;;;;;;;;;;21.24;38.42;100474.25;5038479;28;19917;-78
2022/04/09 01:45:07;;;;;;;;;;;;;;;21.23;38.39;100473.44;5056619;28;20402;-79
2022/04/09 01:47:32;;;;;;;;;;;;;;;21.23;38.64;100486.38;5056421;28;19921;-79
2022/04/09 01:49:57;;;;;;;;;;;;;;;21.21;38.47;100485.88;5056307;28;19921;-83
2022/04/09 01:52:23;;;;;;;;;;;;;;;21.20;38.53;100485.09;5038668;28;19925;-79
2022/04/09 01:54:48;;;;;;;;;;;;;;;21.18;38.32;100490.88;5056050;28;19928;-79
2022/04/09 01:57:15;;;;;;;;;;;;;;;21.18;38.28;100501.06;5055003;28;19924;-79
2022/04/09 01:59:43;;;;;;;;;;;;;;;21.16;38.32;100495.09;5056602;28;19924;-79
2022/04/09 02:02:08;;;;;;;;;;;;;;;21.15;38.56;100504.47;5038664;28;20015;-79
2022/04/09 02:04:34;;;;;;;;;;;;;;;21.14;38.52;100511.91;5038618;28;20025;-78
2022/04/09 02:06:59;;;;;;;;;;;;;;;21.13;38.60;100512.22;5055042;28;20293;-84
2022/04/09 02:09:25;;;;;;;;;;;;;;;21.12;38.54;100510.59;5056522;28;19920;-79
2022/04/09 02:11:50;;;;;;;;;;;;;;;21.11;38.49;100514.47;5055796;28;19920;-78
2022/04/09 02:14:16;;;;;;;;;;;;;;;21.11;38.43;100517.19;5038000;28;19927;-78
2022/04/09 02:16:41;;;;;;;;;;;;;;;21.10;38.41;100512.84;5055976;28;20360;-79
2022/04/09 02:19:08;;;;;;;;;;;;;;;21.09;38.63;100528.53;5055398;28;19916;-79
2022/04/09 02:21:34;;;;;;;;;;;;;;;21.07;38.49;100528.03;5056471;28;19916;-79
2022/04/09 02:23:59;;;;;;;;;;;;;;;21.07;38.24;100533.53;5056285;28;19917;-79
2022/04/09 02:26:25;;;;;;;;;;;;;;;21.07;38.16;100538.22;5054776;28;20365;-78
2022/04/09 02:28:50;;;;;;;;;;;;;;;21.06;38.21;100539.31;5055058;28;19932;-79
2022/04/09 02:31:17;;;;;;;;;;;;;;;21.05;38.35;100538.50;5055854;28;20023;-78
2022/04/09 02:33:43;;;;;;;;;;;;;;;21.04;38.33;100547.06;5054396;28;19927;-79
2022/04/09 02:36:12;;;;;;;;;;;;;;;21.03;38.12;100549.00;5055182;28;19921;-81
2022/04/09 02:38:37;;;;;;;;;;;;;;;21.02;38.45;100549.34;5054193;28;19928;-78
2022/04/09 02:41:02;;;;;;;;;;;;;;;21.01;38.45;100548.50;5054709;28;19921;-83
2022/04/09 02:43:27;;;;;;;;;;;;;;;21.00;37.92;100563.38;5054396;28;20325;-78
2022/04/09 02:45:53;;;;;;;;;;;;;;;20.99;38.38;100564.50;5020898;28;19947;-79
2022/04/09 02:48:18;;;;;;;;;;;;;;;20.99;38.20;100572.75;5053769;28;19921;-78
2022/04/09 02:50:43;;;;;;;;;;;;;;;20.97;38.12;100569.50;5037627;28;19921;-78
2022/04/09 02:53:11;;;;;;;;;;;;;;;20.97;38.38;100585.97;5053998;28;19955;-80
2022/04/09 02:55:36;;;;;;;;;;;;;;;20.96;38.25;100587.09;5020751;28;19936;-80
2022/04/09 02:58:02;;;;;;;;;;;;;;;20.95;37.99;100590.97;5053901;28;20312;-81
2022/04/09 03:00:27;;;;;;;;;;;;;;;20.94;38.04;100584.69;5053767;28;19917;-81
2022/04/09 03:02:52;;;;;;;;;;;;;;;20.93;37.99;100591.28;5052959;28;19921;-80
2022/04/09 03:05:18;;;;;;;;;;;;;;;20.92;37.95;100597.91;5036290;28;19924;-80
2022/04/09 03:07:43;;;;;;;;;;;;;;;20.92;37.95;100597.09;5019881;28;20377;-80
2022/04/09 03:10:08;;;;;;;;;;;;;;;20.90;38.09;100602.91;5035892;28;19928;-80
2022/04/09 03:12:33;;;;;;;;;;;;;;;20.90;38.27;100602.91;5036209;28;19948;-81
2022/04/09 03:14:59;;;;;;;;;;;;;;;20.89;38.27;100600.47;5020359;28;19927;-80
2022/04/09 03:17:24;;;;;;;;;;;;;;;20.88;38.35;100604.34;5052680;28;20349;-80
2022/04/09 03:19:49;;;;;;;;;;;;;;;20.88;38.00;100618.06;5020192;28;19983;-80
2022/04/09 03:22:15;;;;;;;;;;;;;;;20.87;38.28;100627.44;5036055;28;20422;-80
2022/04/09 03:24:40;;;;;;;;;;;;;;;20.85;38.23;100616.75;5020419;28;19947;-80
2022/04/09 03:27:05;;;;;;;;;;;;;;;20.84;38.12;100615.16;5036015;28;20361;-80
2022/04/09 03:29:30;;;;;;;;;;;;;;;20.85;38.02;100626.94;5020174;28;19924;-80
2022/04/09 03:31:57;;;;;;;;;;;;;;;20.83;37.79;100624.50;5019495;28;19953;-80
2022/04/09 03:34:22;;;;;;;;;;;;;;;20.82;38.20;100624.84;5019532;28;19971;-80
2022/04/09 03:36:47;;;;;;;;;;;;;;;20.82;38.00;100628.38;5053534;28;19916;-80
2022/04/09 03:39:13;;;;;;;;;;;;;;;20.81;37.94;100642.41;5019690;28;19921;-80
2022/04/09 03:41:38;;;;;;;;;;;;;;;20.81;37.80;100642.41;5019409;28;19920;-79
2022/04/09 03:44:03;;;;;;;;;;;;;;;20.80;37.93;100638.06;5036185;28;19921;-79
2022/04/09 03:46:28;;;;;;;;;;;;;;;20.79;38.17;100639.16;5019540;28;19924;-79
2022/04/09 03:48:54;;;;;;;;;;;;;;;20.78;38.15;100643.03;5053692;28;19956;-80
2022/04/09 03:51:19;;;;;;;;;;;;;;;20.77;37.92;100644.97;5019177;28;19921;-79
2022/04/09 03:53:45;;;;;;;;;;;;;;;20.75;38.14;100650.78;5036450;28;19920;-80
2022/04/09 03:56:10;;;;;;;;;;;;;;;20.75;38.06;100659.00;5053654;28;19925;-82
2022/04/09 03:58:36;;;;;;;;;;;;;;;20.74;37.94;100653.84;5054152;28;19921;-80
2022/04/09 04:01:01;;;;;;;;;;;;;;;20.73;38.10;100663.19;5039765;28;19976;-80
2022/04/09 04:03:28;;;;;;;;;;;;;;;20.73;38.23;100665.94;5040549;28;19921;-79
2022/04/09 04:05:53;;;;;;;;;;;;;;;20.72;37.91;100667.06;5056270;28;20499;-81
2022/04/09 04:08:18;;;;;;;;;;;;;;;20.71;37.95;100665.44;5022997;28;20007;-79
2022/04/09 04:10:44;;;;;;;;;;;;;;;20.70;38.04;100670.13;5057353;28;20365;-80
2022/04/09 04:13:10;;;;;;;;;;;;;;;20.69;37.98;100678.69;5040504;28;19921;-80
2022/04/09 04:15:35;;;;;;;;;;;;;;;20.69;38.11;100675.94;5057584;28;19924;-80
2022/04/09 04:18:01;;;;;;;;;;;;;;;20.67;37.95;100684.47;5040049;28;19921;-80
2022/04/09 04:20:26;;;;;;;;;;;;;;;20.67;38.05;100681.72;5039586;28;19917;-80
2022/04/09 04:22:52;;;;;;;;;;;;;;;20.67;38.05;100691.91;5040092;28;20265;-80
2022/04/09 04:25:17;;;;;;;;;;;;;;;20.64;37.96;100693.34;5022488;28;19959;-80
2022/04/09 04:27:47;;;;;;;;;;;;;;;20.63;37.84;100688.94;5056953;28;19917;-79
2022/04/09 04:30:12;;;;;;;;;;;;;;;20.63;38.31;100688.94;5057155;28;19960;-79
2022/04/09 04:32:38;;;;;;;;;;;;;;;20.64;37.92;100695.28;5023169;28;19963;-79
2022/04/09 04:35:03;;;;;;;;;;;;;;;20.62;37.88;100694.78;5056778;28;19917;-79
2022/04/09 04:37:36;;;;;;;;;;;;;;;20.61;37.97;100702.16;5039212;28;19974;-80
2022/04/09 04:40:01;;;;;;;;;;;;;;;20.61;37.83;100704.91;5056591;28;20393;-79
2022/04/09 04:42:26;;;;;;;;;;;;;;;20.60;37.82;100710.72;5039325;28;19936;-80
2022/04/09 04:44:51;;;;;;;;;;;;;;;20.60;37.85;100713.47;5038790;28;20336;-82
2022/04/09 04:47:17;;;;;;;;;;;;;;;20.58;37.76;100718.47;5022273;28;19921;-80
2022/04/09 04:49:42;;;;;;;;;;;;;;;20.58;38.08;100722.00;5022254;28;20441;-80
2022/04/09 04:52:07;;;;;;;;;;;;;;;20.57;37.92;100733.31;5055136;28;19921;-80
2022/04/09 04:54:32;;;;;;;;;;;;;;;20.57;38.11;100728.63;5022111;28;19928;-80
2022/04/09 04:56:58;;;;;;;;;;;;;;;20.55;38.02;100744.59;5021765;28;19959;-80
2022/04/09 04:59:23;;;;;;;;;;;;;;;20.55;37.78;100744.59;5022298;28;19927;-79
2022/04/09 05:01:48;;;;;;;;;;;;;;;20.55;37.94;100746.53;5022001;28;20361;-80
2022/04/09 05:04:13;;;;;;;;;;;;;;;20.53;37.96;100747.59;5022032;28;19921;-79
2022/04/09 05:06:39;;;;;;;;;;;;;;;20.53;38.16;100753.09;5056675;28;19921;-80
2022/04/09 05:09:04;;;;;;;;;;;;;;;20.51;37.87;100751.78;5039248;28;19921;-79
2022/04/09 05:11:29;;;;;;;;;;;;;;;20.52;38.05;100758.91;5037082;28;19920;-80
2022/04/09 05:13:54;;;;;;;;;;;;;;;20.51;37.86;100765.50;5022227;28;19942;-80
2022/04/09 05:16:20;;;;;;;;;;;;;;;20.51;37.98;100776.47;5038343;28;20351;-80
2022/04/09 05:18:45;;;;;;;;;;;;;;;20.50;38.00;100769.38;5054904;28;19991;-80
2022/04/09 05:21:10;;;;;;;;;;;;;;;20.49;38.00;100782.28;5054817;28;19924;-80
2022/04/09 05:23:36;;;;;;;;;;;;;;;20.49;37.83;100789.72;5038290;28;19921;-79
2022/04/09 05:26:01;;;;;;;;;;;;;;;20.47;37.88;100791.94;5038243;28;20380;-80
2022/04/09 05:28:26;;;;;;;;;;;;;;;20.47;38.13;100798.25;5055649;28;19939;-82
2022/04/09 05:30:51;;;;;;;;;;;;;;;20.47;38.00;100798.25;5054642;28;19921;-80
2022/04/09 05:33:20;;;;;;;;;;;;;;;20.46;37.96;100804.03;5054291;28;20011;-78
2022/04/09 05:35:45;;;;;;;;;;;;;;;20.46;38.15;100802.13;5038338;28;19916;-79
2022/04/09 05:38:10;;;;;;;;;;;;;;;20.46;38.02;100809.50;5037908;28;20442;-79
2022/04/09 05:40:39;;;;;;;;;;;;;;;20.46;37.96;100815.00;5038619;28;20010;-79
2022/04/09 05:43:05;;;;;;;;;;;;;;;20.44;38.11;100820.81;5054497;28;19921;-79
2022/04/09 05:45:30;;;;;;;;;;;;;;;20.45;37.68;100821.63;5055519;28;19917;-79
2022/04/09 05:47:55;;;;;;;;;;;;;;;20.44;38.08;100820.00;5054976;28;19994;-80
2022/04/09 05:50:21;;;;;;;;;;;;;;;20.44;38.05;100828.22;5055418;28;20328;-80
2022/04/09 05:52:46;;;;;;;;;;;;;;;20.43;37.88;100830.13;5021993;28;19951;-80
2022/04/09 05:55:11;;;;;;;;;;;;;;;20.42;38.05;100833.22;5055551;28;20015;-80
2022/04/09 05:57:37;;;;;;;;;;;;;;;20.42;37.91;100831.28;5055032;28;20262;-80
2022/04/09 06:00:04;;;;;;;;;;;;;;;20.41;38.13;100840.63;5054157;28;19917;-79
2022/04/09 06:02:29;;;;;;;;;;;;;;;20.41;37.98;100845.28;5037355;28;19967;-81
2022/04/09 06:04:55;;;;;;;;;;;;;;;20.41;37.80;100839.81;5020994;28;19968;-79
2022/04/09 06:07:20;;;;;;;;;;;;;;;20.40;37.88;100852.72;5053936;28;20015;-80
2022/04/09 06:09:46;;;;;;;;;;;;;;;20.40;38.06;100849.97;5020723;28;19943;-79
2022/04/09 06:12:12;;;;;;;;;;;;;;;20.39;38.01;100859.34;5020930;28;19964;-79
2022/04/09 06:14:38;;;;;;;;;;;;;;;20.39;37.99;100859.34;5037692;28;20385;-81
2022/04/09 06:17:03;;;;;;;;;;;;;;;20.39;37.98;100867.56;5037278;28;20388;-79
2022/04/09 06:19:29;;;;;;;;;;;;;;;20.38;38.00;100865.91;5055282;28;19921;-79
2022/04/09 06:21:55;;;;;;;;;;;;;;;20.38;37.87;100871.41;5053622;28;19970;-79
2022/04/09 06:24:20;;;;;;;;;;;;;;;20.39;38.05;100880.47;5037315;28;20007;-80
2022/04/09 06:26:46;;;;;;;;;;;;;;;20.37;37.89;100880.75;5037045;28;20027;-79
2022/04/09 06:29:11;;;;;;;;;;;;;;;20.37;37.99;100880.75;5053816;28;19979;-78
2022/04/09 06:31:36;;;;;;;;;;;;;;;20.37;37.93;100889.00;5054749;28;19921;-81
2022/04/09 06:34:01;;;;;;;;;;;;;;;20.37;38.05;100896.41;5037139;28;19924;-78
2022/04/09 06:36:27;;;;;;;;;;;;;;;20.35;37.82;100899.47;5053382;28;20352;-80
2022/04/09 06:38:53;;;;;;;;;;;;;;;20.35;37.86;100902.19;5036807;28;20332;-82
2022/04/09 06:41:18;;;;;;;;;;;;;;;20.36;37.90;100903.00;5054568;28;19921;-80
2022/04/09 06:43:44;;;;;;;;;;;;;;;20.35;37.82;100910.44;5054721;28;20368;-80
2022/04/09 06:46:09;;;;;;;;;;;;;;;20.34;37.90;100906.06;5020672;28;19927;-79
2022/04/09 06:48:35;;;;;;;;;;;;;;;20.34;37.90;100911.56;5054206;28;19925;-80
2022/04/09 06:51:00;;;;;;;;;;;;;;;20.34;37.88;100902.53;5036796;28;20361;-80
2022/04/09 06:53:25;;;;;;;;;;;;;;;20.32;37.92;100914.59;5053039;28;20357;-81
2022/04/09 06:55:51;;;;;;;;;;;;;;;20.32;37.98;100911.84;5054357;28;20365;-81
2022/04/09 06:58:16;;;;;;;;;;;;;;;20.34;37.92;100918.97;5036388;28;20039;-83
2022/04/09 07:00:42;;;;;;;;;;;;;;;20.33;37.94;100926.38;5054248;28;20380;-80
2022/04/09 07:03:07;;;;;;;;;;;;;;;20.32;37.82;100922.81;5052863;28;20011;-80
2022/04/09 07:05:32;;;;;;;;;;;;;;;20.32;38.09;100927.50;5036404;28;19928;-81
2022/04/09 07:07:58;;;;;;;;;;;;;;;20.31;38.13;100921.22;5019939;28;19983;-80
2022/04/09 07:10:23;;;;;;;;;;;;;;;20.31;38.05;100929.44;5052698;28;19920;-80
2022/04/09 07:12:48;;;;;;;;;;;;;;;20.31;38.03;100934.13;5054042;28;19921;-80
2022/04/09 07:15:13;;;;;;;;;;;;;;;20.31;37.98;100936.84;5019468;28;20443;-80
2022/04/09 07:17:41;;;;;;;;;;;;;;;20.31;38.18;100937.66;5019677;28;19921;-80
2022/04/09 07:20:07;;;;;;;;;;;;;;;20.31;38.01;100934.13;5036075;28;20285;-80
2022/04/09 07:22:33;;;;;;;;;;;;;;;20.31;37.94;100947.84;5036243;28;19921;-80
2022/04/09 07:24:58;;;;;;;;;;;;;;;20.31;38.18;100939.59;5054081;28;19970;-80
2022/04/09 07:27:53;;;;;;;;;;;;;;;20.30;37.96;100932.47;5052538;28;20015;-79
2022/04/09 07:30:20;;;;;;;;;;;;;;;20.30;38.21;100936.03;5022603;28;20013;-80
2022/04/09 07:32:46;;;;;;;;;;;;;;;20.30;38.04;100943.44;5036174;28;19960;-80
2022/04/09 07:35:12;;;;;;;;;;;;;;;20.29;38.18;100945.38;5035279;28;19972;-80
2022/04/09 07:37:40;;;;;;;;;;;;;;;20.30;38.04;100957.97;5035860;28;19917;-82
2022/04/09 07:40:06;;;;;;;;;;;;;;;20.30;38.04;100957.97;5052454;28;19916;-80
2022/04/09 07:42:31;;;;;;;;;;;;;;;20.31;38.05;100961.56;5035551;28;19925;-79
2022/04/09 07:44:56;;;;;;;;;;;;;;;20.31;38.30;100961.56;5019892;28;19950;-79
2022/04/09 07:47:22;;;;;;;;;;;;;;;20.31;38.18;100956.06;5035959;28;20353;-80
2022/04/09 07:49:49;;;;;;;;;;;;;;;20.31;38.37;100967.03;5053479;28;19920;-78
2022/04/09 07:52:16;;;;;;;;;;;;;;;20.32;38.41;100963.97;5036126;28;20201;-79
2022/04/09 07:54:41;;;;;;;;;;;;;;;20.33;38.66;100962.03;5035559;28;19924;-81
2022/04/09 07:57:07;;;;;;;;;;;;;;;20.34;38.43;100969.16;5035343;28;19925;-78
2022/04/09 07:59:32;;;;;;;;;;;;;;;20.36;38.60;100977.06;5053270;28;20395;-78
2022/04/09 08:01:57;;;;;;;;;;;;;;;20.36;38.76;100985.31;5052253;28;20369;-78
2022/04/09 08:04:22;;;;;;;;;;;;;;;20.36;38.74;100985.31;5052723;28;19986;-77
2022/04/09 08:06:48;;;;;;;;;;;;;;;20.36;38.60;100988.88;5035506;28;19996;-79
2022/04/09 08:09:13;;;;;;;;;;;;;;;20.39;38.70;100981.97;5051573;28;19917;-79
2022/04/09 08:11:38;;;;;;;;;;;;;;;20.38;38.88;100992.13;5035355;28;20304;-80
2022/04/09 08:14:03;;;;;;;;;;;;;;;20.41;38.94;100996.19;5053498;28;19917;-79
2022/04/09 08:16:29;;;;;;;;;;;;;;;20.43;38.99;101000.25;5019278;28;20375;-79
2022/04/09 08:18:54;;;;;;;;;;;;;;;20.43;38.89;100989.28;5035446;28;20428;-80
2022/04/09 08:21:20;;;;;;;;;;;;;;;20.45;38.94;100991.72;5035306;28;20016;-79
2022/04/09 08:23:47;;;;;;;;;;;;;;;20.46;39.09;101001.56;5018955;28;20316;-78
2022/04/09 08:26:12;;;;;;;;;;;;;;;20.48;38.92;101000.16;5035494;28;19960;-78
2022/04/09 08:28:37;;;;;;;;;;;;;;;20.50;39.04;100994.38;5035248;28;19952;-78
2022/04/09 08:31:03;;;;;;;;;;;;;;;20.49;39.08;101004.56;5018496;28;19928;-78
2022/04/09 08:33:29;;;;;;;;;;;;;;;20.50;38.99;101008.09;5053024;28;19916;-79
2022/04/09 08:35:54;;;;;;;;;;;;;;;20.49;38.98;101010.03;5035016;28;19917;-77
2022/04/09 08:38:19;;;;;;;;;;;;;;;20.50;39.13;101013.59;5035409;28;19920;-79
2022/04/09 08:40:45;;;;;;;;;;;;;;;20.50;39.00;101019.06;5019129;28;19921;-79
2022/04/09 08:43:10;;;;;;;;;;;;;;;20.51;39.09;101023.44;5035571;28;19990;-79
2022/04/09 08:45:36;;;;;;;;;;;;;;;20.50;39.06;101024.56;5020409;28;19920;-78
2022/04/09 08:48:02;;;;;;;;;;;;;;;20.49;39.16;101032.00;5038825;28;19921;-79
2022/04/09 08:50:28;;;;;;;;;;;;;;;20.50;39.29;101032.78;5038869;28;19912;-79
2022/04/09 08:52:53;;;;;;;;;;;;;;;20.49;38.93;101022.94;5022127;28;19924;-78
2022/04/09 08:55:19;;;;;;;;;;;;;;;20.48;39.07;101029.53;5056415;28;19912;-78
2022/04/09 08:57:45;;;;;;;;;;;;;;;20.48;38.97;101035.84;5054635;28;19943;-79
2022/04/09 09:00:13;;;;;;;;;;;;;;;20.47;38.73;101036.97;5038682;28;20447;-78
2022/04/09 09:02:48;;;;;;;;;;;;;;;20.45;38.60;101044.69;5022204;28;20250;-78
2022/04/09 09:05:26;;;;;;;;;;;;;;;20.44;38.51;101048.53;5056427;28;19927;-78
2022/04/09 09:07:52;;;;;;;;;;;;;;;20.45;38.50;101065.81;5056449;28;19974;-78
2022/04/09 09:10:18;;;;;;;;;;;;;;;20.43;38.41;101059.81;5038369;28;19921;-78
2022/04/09 09:12:44;;;;;;;;;;;;;;;20.42;38.47;101060.94;5055031;28;19921;-77
2022/04/09 09:15:09;;;;;;;;;;;;;;;20.41;38.39;101056.53;5038022;28;19927;-79
2022/04/09 09:17:34;;;;;;;;;;;;;;;20.40;38.07;101074.13;5038287;28;19921;-78
2022/04/09 09:20:00;;;;;;;;;;;;;;;20.39;38.29;101073.34;5038462;28;19921;-77
2022/04/09 09:22:38;;;;;;;;;;;;;;;20.38;37.96;101070.88;5055586;28;19920;-77
2022/04/09 09:25:04;;;;;;;;;;;;;;;20.37;37.89;101070.06;5038060;28;19971;-78
2022/04/09 09:27:30;;;;;;;;;;;;;;;20.36;37.98;101068.44;5037933;28;19917;-81
2022/04/09 09:29:55;;;;;;;;;;;;;;;20.36;37.92;101059.38;5054201;28;19929;-79
2022/04/09 09:32:28;;;;;;;;;;;;;;;20.36;37.74;101064.88;5021713;28;20396;-78
2022/04/09 09:34:55;;;;;;;;;;;;;;;20.37;37.63;101066.50;5038315;28;19999;-78
2022/04/09 09:37:24;;;;;;;;;;;;;;;20.37;37.85;101063.78;5055796;28;19916;-78
2022/04/09 09:39:50;;;;;;;;;;;;;;;20.37;37.85;101083.78;5038002;28;19916;-81
2022/04/09 09:42:18;;;;;;;;;;;;;;;20.38;37.87;101068.94;5055715;28;19923;-78
2022/04/09 09:44:44;;;;;;;;;;;;;;;20.38;37.80;101076.38;5037738;28;19917;-77
2022/04/09 09:47:10;;;;;;;;;;;;;;;20.38;37.93;101073.63;5054094;28;19928;-78
2022/04/09 09:49:59;;;;;;;;;;;;;;;20.38;37.81;101082.66;5021165;28;19921;-78
2022/04/09 09:52:32;;;;;;;;;;;;;;;20.39;37.77;101092.53;5037787;28;19917;-78
2022/04/09 09:55:02;;;;;;;;;;;;;;;20.39;37.85;101083.50;5037251;28;20345;-78
2022/04/09 09:57:28;;;;;;;;;;;;;;;20.41;37.70;101082.06;5033480;28;20353;-78
2022/04/09 09:59:54;;;;;;;;;;;;;;;20.41;37.87;101084.81;5035461;28;20427;-78
2022/04/09 10:02:20;;;;;;;;;;;;;;;20.42;37.80;101088.38;5035517;28;20008;-77
2022/04/09 10:04:46;;;;;;;;;;;;;;;20.41;37.70;101079.34;5035665;28;20000;-78
2022/04/09 10:07:12;;;;;;;;;;;;;;;20.42;37.85;101086.44;5034129;28;19921;-80
2022/04/09 10:09:37;;;;;;;;;;;;;;;20.43;37.95;101093.53;5017593;28;19927;-80
2022/04/09 10:12:05;;;;;;;;;;;;;;;20.43;37.99;101099.03;5033933;28;19929;-80
2022/04/09 10:14:31;;;;;;;;;;;;;;;20.43;37.73;101096.28;5034344;28;20358;-79
2022/04/09 10:16:58;;;;;;;;;;;;;;;20.45;37.94;101098.75;5017449;28;20406;-80
2022/04/09 10:19:25;;;;;;;;;;;;;;;20.45;37.71;101091.31;5033852;28;19917;-80
2022/04/09 10:21:51;;;;;;;;;;;;;;;20.46;38.00;101111.34;5034988;28;19929;-80
2022/04/09 10:24:18;;;;;;;;;;;;;;;20.47;37.74;101110.25;5035531;28;20020;-79
2022/04/09 10:26:44;;;;;;;;;;;;;;;20.47;37.85;101115.72;5017307;28;19921;-79
2022/04/09 10:29:10;;;;;;;;;;;;;;;20.47;38.08;101105.56;5033995;28;20281;-79
2022/04/09 10:31:39;;;;;;;;;;;;;;;20.46;37.83;101108.59;5017345;28;20357;-80
2022/04/09 10:34:07;;;;;;;;;;;;;;;20.46;38.06;101101.19;5033781;28;19918;-79
2022/04/09 10:36:41;;;;;;;;;;;;;;;20.48;38.02;101118.16;5035073;28;19921;-79
2022/04/09 10:39:20;;;;;;;;;;;;;;;20.48;37.76;101106.38;5038655;28;19983;-79
2022/04/09 10:41:45;;;;;;;;;;;;;;;20.48;37.79;101125.56;5036347;28;19917;-79
2022/04/09 10:44:10;;;;;;;;;;;;;;;20.47;37.85;101113.78;5018257;28;19974;-79
2022/04/09 10:46:36;;;;;;;;;;;;;;;20.47;38.08;101119.28;5017893;28;19947;-79
2022/04/09 10:49:17;;;;;;;;;;;;;;;20.48;37.96;101120.09;5033506;28;19992;-80
2022/04/09 10:52:03;;;;;;;;;;;;;;;20.48;38.03;101109.91;5033210;28;19940;-80
2022/04/09 10:54:29;;;;;;;;;;;;;;;20.48;37.89;101123.63;5034653;28;19917;-80
2022/04/09 10:56:54;;;;;;;;;;;;;;;20.48;37.84;101123.63;5042390;28;20032;-79
2022/04/09 10:59:22;;;;;;;;;;;;;;;20.49;37.96;101119.81;5020985;28;19944;-80
2022/04/09 11:04:37;;;;;;;;;;;;;;;20.51;38.07;101111.25;5054296;28;19971;-79
2022/04/09 11:07:02;;;;;;;;;;;;;;;20.50;37.96;101115.94;5053224;28;19920;-80
2022/04/09 11:09:43;;;;;;;;;;;;;;;20.50;38.02;101115.94;5052883;28;19917;-79
2022/04/09 11:12:08;;;;;;;;;;;;;;;20.52;38.06;101118.38;5053096;28;20015;-82
2022/04/09 11:14:48;;;;;;;;;;;;;;;20.51;38.20;101124.97;5036979;28;20003;-79
2022/04/09 11:17:17;;;;;;;;;;;;;;;20.50;38.13;101115.94;5036144;28;19916;-79
2022/04/09 11:19:43;;;;;;;;;;;;;;;20.52;38.07;101104.66;5036023;28;19928;-79
2022/04/09 11:22:09;;;;;;;;;;;;;;;20.51;38.09;101119.47;5036216;28;19921;-78
2022/04/09 11:24:37;;;;;;;;;;;;;;;20.52;37.87;101123.88;5036241;28;19921;-79
2022/04/09 11:27:03;;;;;;;;;;;;;;;20.52;37.93;101118.38;5020150;28;19947;-79
2022/04/09 11:29:32;;;;;;;;;;;;;;;20.52;37.85;101129.38;5020287;28;20288;-78
2022/04/09 11:31:58;;;;;;;;;;;;;;;20.52;37.85;101126.63;5036472;28;20254;-82
2022/04/09 11:34:25;;;;;;;;;;;;;;;20.52;38.08;101127.44;5035942;28;19924;-82
2022/04/09 11:36:52;;;;;;;;;;;;;;;20.51;38.02;101131.28;5053038;28;20444;-91
2022/04/09 11:39:17;;;;;;;;;;;;;;;20.52;37.85;101132.91;5053218;28;19966;-78
2022/04/09 11:41:46;;;;;;;;;;;;;;;20.52;37.89;101141.16;5054150;28;19925;-78
2022/04/09 11:44:25;;;;;;;;;;;;;;;20.53;38.07;101140.03;5053239;28;19916;-78
2022/04/09 11:46:53;;;;;;;;;;;;;;;20.54;38.07;101135.38;5036376;28;20296;-76
2022/04/09 11:49:19;;;;;;;;;;;;;;;20.54;37.67;101132.63;5052265;28;19928;-77
2022/04/09 11:51:54;;;;;;;;;;;;;;;20.56;37.84;101143.31;5020084;28;19925;-79
2022/04/09 11:54:19;;;;;;;;;;;;;;;20.55;37.89;101134.28;5036064;28;20319;-80
2022/04/09 11:56:44;;;;;;;;;;;;;;;20.54;37.77;101138.13;5035591;28;20341;-79
2022/04/09 11:59:15;;;;;;;;;;;;;;;20.54;37.91;101149.09;5018867;28;19916;-79
2022/04/09 12:01:44;;;;;;;;;;;;;;;20.53;37.84;101150.19;5053677;28;19938;-79
2022/04/09 12:04:10;;;;;;;;;;;;;;;20.52;37.91;101146.63;5035132;28;19968;-79
2022/04/09 12:06:36;;;;;;;;;;;;;;;20.53;37.71;101155.69;5035368;28;19963;-79
2022/04/09 12:09:01;;;;;;;;;;;;;;;20.52;37.92;101156.81;5035744;28;19971;-79
2022/04/09 12:11:27;;;;;;;;;;;;;;;20.51;37.83;101166.13;5019003;28;19917;-79
2022/04/09 12:13:52;;;;;;;;;;;;;;;20.50;37.69;101157.09;5053422;28;20276;-79
2022/04/09 12:16:18;;;;;;;;;;;;;;;20.51;38.02;101164.22;5052223;28;19966;-80
2022/04/09 12:18:48;;;;;;;;;;;;;;;20.51;37.75;101160.66;5035732;28;20007;-79
2022/04/09 12:21:23;;;;;;;;;;;;;;;20.50;37.85;101165.31;5037716;28;19913;-79
2022/04/09 12:24:02;;;;;;;;;;;;;;;20.50;37.89;101165.31;5057149;28;20054;-80
2022/04/09 12:26:28;;;;;;;;;;;;;;;20.50;37.82;101179.03;5039407;28;20392;-79
2022/04/09 12:29:09;;;;;;;;;;;;;;;20.50;37.72;101172.75;5038842;28;19917;-79
2022/04/09 12:31:38;;;;;;;;;;;;;;;20.50;37.68;101168.06;5055583;28;20388;-80
2022/04/09 12:34:04;;;;;;;;;;;;;;;20.49;37.82;101188.41;5056735;28;20006;-79